Time;durP1;ratioP1;P1;durP2;ratioP2;P2;SDS_P1;SDS_P2;PMS_P1;PMS_P2;Temp;Humidity;BMP_temperature;BMP_pressure;BME280_temperature;BME280_humidity;BME280_pressure;Samples;Min_cycle;Max_cycle;Signal;HPM_P1;HPM_P2
2024/02/14 00:02:21;;;;;;;5.40;3.57;;;24.60;99.90;;;;;;5014056;28;20072;-55
2024/02/14 00:04:48;;;;;;;8.75;4.43;;;24.70;99.90;;;;;;5014051;28;20029;-56
2024/02/14 00:07:14;;;;;;;9.02;4.40;;;24.70;99.90;;;;;;5014000;28;20052;-56
2024/02/14 00:09:40;;;;;;;7.70;4.20;;;24.70;99.90;;;;;;5013987;28;20105;-56
2024/02/14 00:12:06;;;;;;;6.38;3.70;;;24.70;99.90;;;;;;5014017;28;20439;-55
2024/02/14 00:14:32;;;;;;;7.57;4.20;;;24.60;99.90;;;;;;5014045;28;20022;-56
2024/02/14 00:16:59;;;;;;;6.57;3.70;;;24.60;99.90;;;;;;5012599;28;20028;-56
2024/02/14 00:19:25;;;;;;;6.60;3.90;;;24.60;99.90;;;;;;5013890;28;20025;-56
2024/02/14 00:21:51;;;;;;;9.02;3.60;;;24.60;99.90;;;;;;5013694;28;20022;-56
2024/02/14 00:24:18;;;;;;;7.55;3.65;;;24.60;99.90;;;;;;5011838;28;20417;-56
2024/02/14 00:26:46;;;;;;;5.45;3.72;;;24.60;99.90;;;;;;5013631;28;20470;-56
2024/02/14 00:29:12;;;;;;;;;;;24.60;99.90;;;;;;5014142;28;20474;-56
2024/02/14 00:31:37;;;;;;;5.18;3.25;;;24.60;99.90;;;;;;5013622;28;19935;-57
2024/02/14 00:34:04;;;;;;;6.80;3.63;;;24.50;99.90;;;;;;5013749;28;20105;-57
2024/02/14 00:36:30;;;;;;;8.30;4.45;;;24.50;99.90;;;;;;5013932;28;20026;-56
2024/02/14 00:38:56;;;;;;;8.10;4.05;;;24.50;99.90;;;;;;5013560;28;20474;-56
2024/02/14 00:41:23;;;;;;;6.57;4.03;;;24.50;99.90;;;;;;5013463;28;20030;-56
2024/02/14 00:43:49;;;;;;;5.88;3.17;;;24.50;99.90;;;;;;5013404;28;20033;-57
2024/02/14 00:46:18;;;;;;;6.45;3.03;;;24.50;99.90;;;;;;5013278;28;20050;-56
2024/02/14 00:48:44;;;;;;;7.22;3.70;;;24.50;99.90;;;;;;5013331;28;20017;-56
2024/02/14 00:51:11;;;;;;;7.57;4.40;;;24.50;99.90;;;;;;5013213;28;20100;-56
2024/02/14 00:53:36;;;;;;;7.82;3.50;;;24.50;99.90;;;;;;5013358;28;20076;-56
2024/02/14 00:56:02;;;;;;;5.68;3.90;;;24.50;99.90;;;;;;5013352;28;20018;-56
2024/02/14 00:58:28;;;;;;;6.32;3.60;;;24.50;99.90;;;;;;5013084;28;20567;-56
2024/02/14 01:00:54;;;;;;;7.50;3.40;;;24.50;99.90;;;;;;5030005;23;20110;-48
2024/02/14 01:03:19;;;;;;;6.78;3.60;;;24.50;99.90;;;;;;5033031;28;20053;-49
2024/02/14 01:05:45;;;;;;;6.15;3.22;;;24.50;99.90;;;;;;5032735;28;20393;-48
2024/02/14 01:08:12;;;;;;;5.78;3.40;;;24.50;99.90;;;;;;5031620;28;20021;-48
2024/02/14 01:10:38;;;;;;;7.60;3.58;;;24.50;99.90;;;;;;5032721;28;20531;-48
2024/02/14 01:13:06;;;;;;;6.93;3.03;;;24.40;99.90;;;;;;5032957;28;20426;-48
2024/02/14 01:15:33;;;;;;;8.48;4.35;;;24.40;99.90;;;;;;5032912;28;20415;-48
2024/02/14 01:17:59;;;;;;;6.25;3.72;;;24.40;99.90;;;;;;5032565;28;20088;-49
2024/02/14 01:20:25;;;;;;;5.88;3.13;;;24.40;99.90;;;;;;5032653;28;20469;-48
2024/02/14 01:22:51;;;;;;;5.28;3.25;;;24.40;99.90;;;;;;5032500;28;20101;-48
2024/02/14 01:25:17;;;;;;;4.75;3.13;;;24.40;99.90;;;;;;5032407;28;20052;-48
2024/02/14 01:27:43;;;;;;;8.40;3.45;;;24.40;99.90;;;;;;5032390;28;20047;-48
2024/02/14 01:30:10;;;;;;;5.85;3.00;;;24.40;99.90;;;;;;5032470;28;20019;-48
2024/02/14 01:32:35;;;;;;;6.63;3.40;;;24.40;99.90;;;;;;5032803;28;20033;-48
2024/02/14 01:35:01;;;;;;;4.57;2.80;;;24.30;99.90;;;;;;5032194;28;20420;-48
2024/02/14 01:37:29;;;;;;;7.07;3.50;;;24.40;99.90;;;;;;5031542;28;20056;-47
2024/02/14 01:39:54;;;;;;;;;;;24.30;99.90;;;;;;5032731;28;20470;-48
2024/02/14 01:42:20;;;;;;;4.63;3.05;;;24.30;99.90;;;;;;5032134;28;19905;-48
2024/02/14 01:44:46;;;;;;;4.53;2.92;;;24.30;99.90;;;;;;5032387;28;20104;-48
2024/02/14 01:47:12;;;;;;;5.18;3.08;;;24.30;99.90;;;;;;5032061;28;20402;-48
2024/02/14 01:49:39;;;;;;;4.85;2.97;;;24.30;99.90;;;;;;5032504;28;20105;-48
2024/02/14 01:52:05;;;;;;;4.10;2.55;;;24.30;99.90;;;;;;5032428;28;20033;-48
2024/02/14 01:54:33;;;;;;;5.22;3.20;;;24.20;99.90;;;;;;5032020;28;20116;-48
2024/02/14 01:57:00;;;;;;;;;;;24.20;99.90;;;;;;5032448;28;20029;-48
2024/02/14 01:59:26;;;;;;;5.35;2.85;;;24.30;99.90;;;;;;5030944;28;19916;-48
2024/02/14 02:01:52;;;;;;;5.05;2.70;;;24.20;99.90;;;;;;5044426;22;20058;-57
2024/02/14 02:04:18;;;;;;;4.70;3.00;;;24.20;99.90;;;;;;5032096;28;20033;-57
2024/02/14 02:06:44;;;;;;;5.28;2.92;;;24.20;99.90;;;;;;5031908;28;20167;-57
2024/02/14 02:09:11;;;;;;;4.28;2.65;;;24.20;99.90;;;;;;5032088;28;20057;-56
2024/02/14 02:12:07;;;;;;;4.68;2.75;;;24.20;99.90;;;;;;5032143;28;20028;-56
2024/02/14 02:14:33;;;;;;;6.20;3.05;;;24.20;99.90;;;;;;5031142;28;20064;-56
2024/02/14 02:17:00;;;;;;;4.53;3.10;;;24.20;99.90;;;;;;5031939;28;20107;-57
2024/02/14 02:19:25;;;;;;;4.47;2.53;;;24.20;99.90;;;;;;5031900;28;20025;-56
2024/02/14 02:21:52;;;;;;;4.85;3.03;;;24.20;99.90;;;;;;5031772;28;20390;-57
2024/02/14 02:24:18;;;;;;;4.93;2.58;;;24.10;99.90;;;;;;5031878;28;20351;-56
2024/02/14 02:26:43;;;;;;;3.90;2.63;;;24.20;99.90;;;;;;5032013;28;20043;-56
2024/02/14 02:29:09;;;;;;;4.50;2.65;;;24.20;99.90;;;;;;5032038;28;20026;-57
2024/02/14 02:31:37;;;;;;;4.60;2.67;;;24.10;99.90;;;;;;5031805;28;20033;-56
2024/02/14 02:34:03;;;;;;;4.25;2.65;;;24.10;99.90;;;;;;5031722;28;20028;-57
2024/02/14 02:36:29;;;;;;;3.13;2.13;;;24.10;99.90;;;;;;5031826;28;20021;-57
2024/02/14 02:38:57;;;;;;;5.82;2.67;;;24.10;99.90;;;;;;5031907;28;20021;-56
2024/02/14 02:41:24;;;;;;;4.53;2.63;;;24.10;99.90;;;;;;5031872;28;20021;-56
2024/02/14 02:43:50;;;;;;;5.25;3.33;;;24.10;99.90;;;;;;5016915;28;20018;-57
2024/02/14 02:46:16;;;;;;;4.85;2.10;;;24.10;99.90;;;;;;5016080;28;20508;-57
2024/02/14 02:48:42;;;;;;;4.20;2.83;;;24.10;99.90;;;;;;5034243;28;20037;-56
2024/02/14 02:51:08;;;;;;;4.07;2.47;;;24.00;99.90;;;;;;5035206;28;20491;-56
2024/02/14 02:53:35;;;;;;;4.95;2.85;;;24.00;99.90;;;;;;5035145;28;20079;-56
2024/02/14 02:56:00;;;;;;;4.63;2.08;;;24.00;99.90;;;;;;5033571;28;20022;-56
2024/02/14 02:58:26;;;;;;;4.00;2.38;;;24.00;99.90;;;;;;5034860;28;20068;-56
2024/02/14 03:00:55;;;;;;;4.28;2.20;;;24.00;99.90;;;;;;5041898;23;20050;-52
2024/02/14 03:03:21;;;;;;;4.38;2.53;;;24.00;99.90;;;;;;5013946;28;20458;-47
2024/02/14 03:05:47;;;;;;;4.43;2.58;;;24.00;99.90;;;;;;5014672;28;20125;-47
2024/02/14 03:08:16;;;;;;;4.90;2.75;;;24.00;99.90;;;;;;5014368;28;20161;-47
2024/02/14 03:10:42;;;;;;;3.95;2.47;;;24.00;99.90;;;;;;5015152;28;20026;-48
2024/02/14 03:13:11;;;;;;;5.47;2.80;;;24.00;99.90;;;;;;5014841;28;20020;-48
2024/02/14 03:15:38;;;;;;;4.03;2.42;;;24.00;99.90;;;;;;5014177;28;20022;-48
2024/02/14 03:18:09;;;;;;;3.67;2.63;;;24.00;99.90;;;;;;5013637;28;20021;-48
2024/02/14 03:20:36;;;;;;;4.55;2.63;;;23.90;99.90;;;;;;5015010;28;20029;-47
2024/02/14 03:23:03;;;;;;;3.88;2.60;;;23.90;99.90;;;;;;5014981;28;20053;-48
2024/02/14 03:25:29;;;;;;;5.45;2.60;;;23.90;99.90;;;;;;5015004;28;20080;-47
2024/02/14 03:27:56;;;;;;;2.72;2.10;;;23.90;99.90;;;;;;5014975;28;20430;-48
2024/02/14 03:30:22;;;;;;;3.38;2.05;;;23.90;99.90;;;;;;5014900;28;20478;-47
2024/02/14 03:32:52;;;;;;;4.88;2.22;;;23.90;99.90;;;;;;5014686;28;20040;-47
2024/02/14 03:35:19;;;;;;;5.03;2.70;;;23.90;99.90;;;;;;5029909;28;20069;-47
2024/02/14 03:37:52;;;;;;;3.58;2.25;;;23.90;99.90;;;;;;5014853;28;20018;-47
2024/02/14 03:40:20;;;;;;;3.42;2.08;;;23.90;99.90;;;;;;5014618;28;20105;-47
2024/02/14 03:42:46;;;;;;;3.58;2.45;;;23.90;99.90;;;;;;5014564;28;20025;-47
2024/02/14 03:45:12;;;;;;;5.47;2.60;;;23.80;99.90;;;;;;5014648;28;20029;-47
2024/02/14 03:47:41;;;;;;;4.25;2.35;;;23.80;99.90;;;;;;5014426;28;20030;-47
2024/02/14 03:50:08;;;;;;;3.83;2.40;;;23.80;99.90;;;;;;5029665;28;20374;-47
2024/02/14 03:52:34;;;;;;;4.28;2.30;;;23.80;99.90;;;;;;5014355;28;20091;-47
2024/02/14 03:55:01;;;;;;;4.07;2.70;;;23.80;99.90;;;;;;5014321;28;20445;-49
2024/02/14 03:57:28;;;;;;;4.47;2.30;;;23.80;99.90;;;;;;5014182;28;20030;-47
2024/02/14 03:59:55;;;;;;;4.63;2.75;;;23.80;99.90;;;;;;5013456;28;20030;-48
2024/02/14 04:02:23;;;;;;;2.85;2.20;;;23.80;99.90;;;;;;5055012;23;20136;-56
2024/02/14 04:04:49;;;;;;;3.63;2.05;;;23.80;99.90;;;;;;5053885;28;20029;-56
2024/02/14 04:07:15;;;;;;;4.18;2.90;;;23.80;99.90;;;;;;5053843;28;20036;-55
2024/02/14 04:09:41;;;;;;;3.90;2.72;;;23.80;99.90;;;;;;5053749;28;20376;-56
2024/02/14 04:12:07;;;;;;;4.13;2.60;;;23.80;99.90;;;;;;5053661;28;20508;-56
2024/02/14 04:14:32;;;;;;;6.45;2.42;;;23.80;99.90;;;;;;5053672;28;20053;-56
2024/02/14 04:16:58;;;;;;;4.22;2.35;;;23.70;99.90;;;;;;5053670;28;20063;-56
2024/02/14 04:19:24;;;;;;;3.45;2.05;;;23.70;99.90;;;;;;5053978;28;20079;-56
2024/02/14 04:21:50;;;;;;;5.85;2.80;;;23.70;99.90;;;;;;5053629;28;20025;-56
2024/02/14 04:24:16;;;;;;;3.55;2.15;;;23.70;99.90;;;;;;5053583;28;20496;-57
2024/02/14 04:26:41;;;;;;;6.07;2.63;;;23.70;99.90;;;;;;5053417;28;20043;-57
2024/02/14 04:29:08;;;;;;;3.50;2.65;;;23.70;99.90;;;;;;5053345;28;20017;-56
2024/02/14 04:31:34;;;;;;;3.93;2.43;;;23.70;99.90;;;;;;5053460;28;20468;-57
2024/02/14 04:34:00;;;;;;;5.10;2.58;;;23.70;99.90;;;;;;5053326;28;20062;-57
2024/02/14 04:36:26;;;;;;;3.63;2.38;;;23.70;99.90;;;;;;5053395;28;20108;-57
2024/02/14 04:38:53;;;;;;;4.30;2.38;;;23.70;99.90;;;;;;5053379;28;20143;-57
2024/02/14 04:41:19;;;;;;;3.55;2.33;;;23.70;99.90;;;;;;5053012;28;20027;-57
2024/02/14 04:43:45;;;;;;;4.10;2.30;;;23.70;99.90;;;;;;5053224;28;20021;-57
2024/02/14 04:46:11;;;;;;;4.45;1.88;;;23.70;99.90;;;;;;5053018;28;20033;-57
2024/02/14 04:48:37;;;;;;;4.63;2.38;;;23.70;99.90;;;;;;5052973;28;20147;-57
2024/02/14 04:51:04;;;;;;;6.05;2.90;;;23.70;99.90;;;;;;5052944;28;20112;-58
2024/02/14 04:53:31;;;;;;;4.68;2.50;;;23.60;99.90;;;;;;5052920;28;20523;-57
2024/02/14 04:55:57;;;;;;;4.00;2.17;;;23.70;99.90;;;;;;5053110;28;20037;-57
2024/02/14 04:58:23;;;;;;;3.65;2.30;;;23.60;99.90;;;;;;5052844;28;20075;-57
2024/02/14 05:00:49;;;;;;;5.22;2.42;;;23.60;99.90;;;;;;5052948;28;20040;-57
2024/02/14 05:03:15;;;;;;;6.47;2.22;;;23.60;99.90;;;;;;5052787;28;20500;-57
2024/02/14 05:05:41;;;;;;;4.43;2.30;;;23.60;99.90;;;;;;5052651;28;20029;-57
2024/02/14 05:08:07;;;;;;;8.27;2.67;;;23.60;99.90;;;;;;5051519;28;20124;-57
2024/02/14 05:10:33;;;;;;;4.63;2.33;;;23.60;99.90;;;;;;5052386;28;20180;-57
2024/02/14 05:12:59;;;;;;;4.70;2.53;;;23.60;99.90;;;;;;5052592;28;20052;-57
2024/02/14 05:15:25;;;;;;;6.28;3.00;;;23.50;99.90;;;;;;5052903;28;20025;-57
2024/02/14 05:17:52;;;;;;;3.45;2.38;;;23.60;99.90;;;;;;5052587;28;20033;-57
2024/02/14 05:20:18;;;;;;;6.15;2.53;;;23.50;99.90;;;;;;5052531;28;20025;-57
2024/02/14 05:22:43;;;;;;;5.78;2.60;;;23.50;99.90;;;;;;5052288;28;20056;-57
2024/02/14 05:25:09;;;;;;;5.00;2.10;;;23.50;99.90;;;;;;5051312;28;20020;-57
2024/02/14 05:27:36;;;;;;;7.22;2.67;;;23.50;99.90;;;;;;5052395;28;20166;-57
2024/02/14 05:30:06;;;;;;;3.60;2.00;;;23.50;99.90;;;;;;5052422;28;20021;-57
2024/02/14 05:32:34;;;;;;;4.75;2.35;;;23.50;99.90;;;;;;5052077;28;20039;-56
2024/02/14 05:35:00;;;;;;;4.15;2.42;;;23.50;99.90;;;;;;5052414;28;20028;-56
2024/02/14 05:37:29;;;;;;;6.90;2.47;;;23.50;99.90;;;;;;5052568;28;20469;-56
2024/02/14 05:39:55;;;;;;;5.55;2.60;;;23.50;99.90;;;;;;5052199;28;20083;-56
2024/02/14 05:42:21;;;;;;;6.85;2.42;;;23.50;99.90;;;;;;5052240;28;20036;-56
2024/02/14 05:44:47;;;;;;;7.10;2.47;;;23.50;99.90;;;;;;5052169;28;20028;-57
2024/02/14 05:47:13;;;;;;;4.72;2.75;;;23.50;99.90;;;;;;5051959;28;20032;-56
2024/02/14 05:49:39;;;;;;;4.45;1.70;;;23.40;99.90;;;;;;5052138;28;20385;-58
2024/02/14 05:52:09;;;;;;;3.50;2.33;;;23.40;99.90;;;;;;5052094;28;20037;-58
2024/02/14 05:54:35;;;;;;;4.18;1.88;;;23.40;99.90;;;;;;5051938;28;20067;-58
2024/02/14 05:57:02;;;;;;;5.55;2.03;;;23.40;99.90;;;;;;5052263;28;20025;-58
2024/02/14 05:59:28;;;;;;;6.28;1.75;;;23.40;99.90;;;;;;5052296;28;20017;-58
2024/02/14 06:01:53;;;;;;;3.47;1.90;;;23.40;99.90;;;;;;5049822;28;20040;-58
2024/02/14 06:04:19;;;;;;;5.55;2.28;;;23.40;99.90;;;;;;5051114;28;20017;-58
2024/02/14 06:06:45;;;;;;;4.68;2.30;;;23.40;99.90;;;;;;5051152;28;20397;-57
2024/02/14 06:09:11;;;;;;;5.53;2.20;;;23.30;99.90;;;;;;5051027;28;20416;-57
2024/02/14 06:11:38;;;;;;;3.97;1.92;;;23.30;99.90;;;;;;5052040;28;20029;-56
2024/02/14 06:14:07;;;;;;;4.75;1.80;;;23.30;99.90;;;;;;5052006;28;20104;-55
2024/02/14 06:16:34;;;;;;;5.78;2.47;;;23.40;99.90;;;;;;5052148;28;20029;-56
2024/02/14 06:19:00;;;;;;;6.95;2.83;;;23.40;99.90;;;;;;5051971;28;20477;-56
2024/02/14 06:21:26;;;;;;;4.47;1.90;;;23.30;99.90;;;;;;5051776;28;20509;-56
2024/02/14 06:23:52;;;;;;;6.03;2.53;;;23.30;99.90;;;;;;5055012;28;20104;-57
2024/02/14 06:26:18;;;;;;;6.38;3.13;;;23.30;99.90;;;;;;5055752;28;20044;-57
2024/02/14 06:28:45;;;;;;;6.35;2.60;;;23.30;99.90;;;;;;5055586;28;20025;-56
2024/02/14 06:31:11;;;;;;;3.08;2.20;;;23.30;99.90;;;;;;5055610;28;20027;-56
2024/02/14 06:33:37;;;;;;;6.05;2.42;;;23.30;99.90;;;;;;5055606;28;20104;-57
2024/02/14 06:36:03;;;;;;;4.13;2.50;;;23.30;99.90;;;;;;5055674;28;20431;-57
2024/02/14 06:38:30;;;;;;;4.55;2.13;;;23.30;99.90;;;;;;5055527;28;20021;-56
2024/02/14 06:40:56;;;;;;;7.07;2.30;;;23.30;99.90;;;;;;5055451;28;20025;-56
2024/02/14 06:43:22;;;;;;;5.72;2.00;;;23.20;99.90;;;;;;5055431;28;20032;-56
2024/02/14 06:45:48;;;;;;;5.63;2.00;;;23.20;99.90;;;;;;5055284;28;20036;-57
2024/02/14 06:48:14;;;;;;;4.47;2.20;;;23.20;99.90;;;;;;5055228;28;20478;-57
2024/02/14 06:50:39;;;;;;;7.53;2.33;;;23.20;99.90;;;;;;5055117;28;20487;-57
2024/02/14 06:53:06;;;;;;;6.15;2.00;;;23.20;99.90;;;;;;5055365;28;20025;-57
2024/02/14 06:55:32;;;;;;;3.90;2.20;;;23.20;99.90;;;;;;5055546;28;20029;-56
2024/02/14 06:58:01;;;;;;;5.22;2.35;;;23.20;99.90;;;;;;5055133;28;20575;-56
2024/02/14 07:00:28;;;;;;;8.70;3.13;;;23.20;99.90;;;;;;5055056;28;20048;-56
2024/02/14 07:02:54;;;;;;;3.63;2.13;;;23.20;99.90;;;;;;5054804;28;20114;-55
2024/02/14 07:05:19;;;;;;;5.22;2.08;;;23.20;99.90;;;;;;5053612;28;20473;-56
2024/02/14 07:07:45;;;;;;;3.72;2.08;;;23.20;99.90;;;;;;5054930;28;20041;-56
2024/02/14 07:10:11;;;;;;;5.22;2.50;;;23.20;99.90;;;;;;5054847;28;20029;-56
2024/02/14 07:12:38;;;;;;;7.93;2.42;;;23.10;99.90;;;;;;5054848;28;20029;-56
2024/02/14 07:15:05;;;;;;;4.30;2.40;;;23.10;99.90;;;;;;5055054;28;20025;-57
2024/02/14 07:17:31;;;;;;;6.57;2.55;;;23.20;99.90;;;;;;5053618;28;20032;-57
2024/02/14 07:19:57;;;;;;;4.82;2.15;;;23.10;99.90;;;;;;5054658;28;20126;-56
2024/02/14 07:22:23;;;;;;;4.20;2.15;;;23.10;99.90;;;;;;5054810;28;20520;-57
2024/02/14 07:24:49;;;;;;;5.80;2.20;;;23.10;99.90;;;;;;5054488;28;20377;-57
2024/02/14 07:27:16;;;;;;;6.15;2.65;;;23.10;99.90;;;;;;5054584;28;20032;-57
2024/02/14 07:29:42;;;;;;;5.30;1.95;;;23.10;99.90;;;;;;5054642;28;20070;-57
2024/02/14 07:32:08;;;;;;;5.60;2.45;;;23.10;99.90;;;;;;5054755;28;20420;-57
2024/02/14 07:34:34;;;;;;;5.47;2.30;;;23.10;99.90;;;;;;5053215;28;20085;-57
2024/02/14 07:37:00;;;;;;;7.15;2.60;;;23.10;99.90;;;;;;5054359;28;20071;-56
2024/02/14 07:39:25;;;;;;;4.45;2.00;;;23.10;99.90;;;;;;5054386;28;20056;-56
2024/02/14 07:41:51;;;;;;;4.57;2.58;;;23.10;99.90;;;;;;5054297;28;20091;-56
2024/02/14 07:44:17;;;;;;;5.15;2.15;;;23.10;99.90;;;;;;5054370;28;20025;-56
2024/02/14 07:46:43;;;;;;;5.15;2.47;;;23.00;99.90;;;;;;5054093;28;20529;-57
2024/02/14 07:49:09;;;;;;;6.43;2.40;;;23.00;99.90;;;;;;5052851;28;20104;-57
2024/02/14 07:51:39;;;;;;;5.20;2.67;;;23.00;99.90;;;;;;5054213;28;20027;-56
2024/02/14 07:54:06;;;;;;;5.07;2.83;;;23.10;99.90;;;;;;5052840;28;20021;-56
2024/02/14 07:56:32;;;;;;;4.72;2.03;;;23.10;99.90;;;;;;5052681;28;20032;-56
2024/02/14 07:58:58;;;;;;;5.38;2.15;;;23.10;99.90;;;;;;5052693;28;20492;-56
2024/02/14 08:01:25;;;;;;;5.38;2.22;;;23.10;99.90;;;;;;5053853;28;20124;-56
2024/02/14 08:03:50;;;;;;;4.43;2.27;;;23.10;99.90;;;;;;5053892;28;20429;-57
2024/02/14 08:06:17;;;;;;;4.80;2.75;;;23.10;99.90;;;;;;5054100;28;20104;-57
2024/02/14 08:08:43;;;;;;;6.20;2.58;;;23.10;99.90;;;;;;5053905;28;20436;-56
2024/02/14 08:11:09;;;;;;;5.13;3.00;;;23.10;99.90;;;;;;5054118;28;20049;-56
2024/02/14 08:13:36;;;;;;;5.43;2.78;;;23.10;99.90;;;;;;5053783;28;20056;-56
2024/02/14 08:16:02;;;;;;;5.65;2.78;;;23.10;99.90;;;;;;5053607;28;20017;-56
2024/02/14 08:18:28;;;;;;;6.22;2.33;;;23.00;99.90;;;;;;5053567;28;20043;-57
2024/02/14 08:20:54;;;;;;;4.65;2.38;;;23.10;99.90;;;;;;5053703;28;20021;-57
2024/02/14 08:23:20;;;;;;;5.15;2.67;;;23.10;99.90;;;;;;5052280;28;20029;-56
2024/02/14 08:25:46;;;;;;;5.22;3.05;;;23.10;99.90;;;;;;5053587;28;20159;-57
2024/02/14 08:28:12;;;;;;;6.28;2.50;;;23.10;99.90;;;;;;5053741;28;20031;-56
2024/02/14 08:30:38;;;;;;;9.85;3.38;;;23.20;99.90;;;;;;5053571;28;20096;-55
2024/02/14 08:33:04;;;;;;;7.05;2.90;;;23.10;99.90;;;;;;5053214;28;20147;-55
2024/02/14 08:35:30;;;;;;;5.18;2.35;;;23.20;99.90;;;;;;5053333;28;20021;-55
2024/02/14 08:37:55;;;;;;;5.18;2.60;;;23.20;99.90;;;;;;5053283;28;20027;-56
2024/02/14 08:40:21;;;;;;;4.70;2.42;;;23.20;99.90;;;;;;5053278;28;20025;-56
2024/02/14 08:42:47;;;;;;;4.32;2.75;;;23.20;99.90;;;;;;5051847;28;20112;-56
2024/02/14 08:45:13;;;;;;;5.18;2.70;;;23.20;99.90;;;;;;5052817;28;20045;-56
2024/02/14 08:47:39;;;;;;;6.40;2.58;;;23.20;99.90;;;;;;5052012;28;20052;-55
2024/02/14 08:50:05;;;;;;;5.60;2.38;;;23.20;99.90;;;;;;5052963;28;20362;-55
2024/02/14 08:52:32;;;;;;;8.45;2.70;;;23.20;99.90;;;;;;5052857;28;20020;-56
2024/02/14 08:54:58;;;;;;;4.03;2.50;;;23.20;99.90;;;;;;5052738;28;20024;-56
2024/02/14 08:57:23;;;;;;;5.15;2.50;;;23.20;99.90;;;;;;5052761;28;20035;-55
2024/02/14 08:59:49;;;;;;;5.18;2.42;;;23.30;99.90;;;;;;5052651;28;20426;-56
2024/02/14 09:02:16;;;;;;;6.28;2.63;;;23.20;99.90;;;;;;5052636;28;20052;-55
2024/02/14 09:04:43;;;;;;;4.97;2.38;;;23.30;99.90;;;;;;5052922;28;20104;-56
2024/02/14 09:07:09;;;;;;;4.93;2.07;;;23.30;99.90;;;;;;5052410;28;20037;-55
2024/02/14 09:09:36;;;;;;;8.30;2.85;;;23.30;99.90;;;;;;5052570;28;20261;-55
2024/02/14 09:12:02;;;;;;;4.30;2.15;;;23.30;99.90;;;;;;5052529;28;20021;-56
2024/02/14 09:14:31;;;;;;;5.55;2.55;;;23.30;99.90;;;;;;5052248;28;20033;-56
2024/02/14 09:16:57;;;;;;;4.35;2.33;;;23.30;99.90;;;;;;5052549;28;20159;-56
2024/02/14 09:19:25;;;;;;;4.07;2.20;;;23.30;99.90;;;;;;5052455;28;20024;-56
2024/02/14 09:21:51;;;;;;;6.15;2.50;;;23.30;99.90;;;;;;5052375;28;20025;-56
2024/02/14 09:24:16;;;;;;;5.00;1.95;;;23.40;99.90;;;;;;5052331;28;20044;-55
2024/02/14 09:26:43;;;;;;;4.20;2.25;;;23.30;99.90;;;;;;5052353;28;20029;-55
2024/02/14 09:29:10;;;;;;;7.05;2.40;;;23.30;99.90;;;;;;5052267;28;20372;-56
2024/02/14 09:31:37;;;;;;;6.13;2.25;;;23.30;99.90;;;;;;5052262;28;20029;-56
2024/02/14 09:34:03;;;;;;;6.32;2.22;;;23.40;99.90;;;;;;5052132;28;20048;-56
2024/02/14 09:36:28;;;;;;;5.50;2.30;;;23.40;99.90;;;;;;5050644;28;20488;-56
2024/02/14 09:38:55;;;;;;;5.50;2.50;;;23.40;99.90;;;;;;5051176;28;20040;-56
2024/02/14 09:41:37;;;;;;;6.45;2.80;;;23.40;99.90;;;;;;5052184;28;20036;-56
2024/02/14 09:44:03;;;;;;;8.55;2.50;;;23.40;99.90;;;;;;5052062;28;20028;-56
2024/02/14 09:46:30;;;;;;;4.30;2.33;;;23.40;99.90;;;;;;5050612;28;20592;-57
2024/02/14 09:48:59;;;;;;;6.50;1.65;;;23.40;99.90;;;;;;5052014;28;20032;-55
2024/02/14 09:51:25;;;;;;;5.63;2.20;;;23.40;99.90;;;;;;5050672;28;20045;-56
2024/02/14 09:53:54;;;;;;;4.65;1.85;;;23.40;99.90;;;;;;5052027;28;20024;-56
2024/02/14 09:56:22;;;;;;;7.63;2.50;;;23.40;99.90;;;;;;5050749;28;20032;-55
2024/02/14 09:59:07;;;;;;;4.88;2.20;;;23.50;99.90;;;;;;5055423;28;20071;-56
2024/02/14 10:01:32;;;;;;;4.90;2.10;;;23.50;99.90;;;;;;5056006;28;20520;-55
2024/02/14 10:03:58;;;;;;;4.43;2.40;;;23.50;99.90;;;;;;5055986;28;20063;-56
2024/02/14 10:06:25;;;;;;;4.82;2.35;;;23.50;99.90;;;;;;5055970;28;20500;-56
2024/02/14 10:08:51;;;;;;;5.00;2.30;;;23.50;99.90;;;;;;5055999;28;20017;-56
2024/02/14 10:11:21;;;;;;;6.95;2.30;;;23.50;99.90;;;;;;5056210;28;20036;-56
2024/02/14 10:13:48;;;;;;;6.55;2.05;;;23.50;99.90;;;;;;5056203;28;20062;-56
2024/02/14 10:16:14;;;;;;;11.32;2.20;;;23.60;99.90;;;;;;5054536;28;20024;-56
2024/02/14 10:18:40;;;;;;;7.95;2.78;;;23.60;99.90;;;;;;5055911;28;20162;-56
2024/02/14 10:21:08;;;;;;;9.52;2.13;;;23.60;99.90;;;;;;5055720;28;20021;-56
2024/02/14 10:23:34;;;;;;;5.78;2.30;;;23.70;99.90;;;;;;5055834;28;20024;-56
2024/02/14 10:26:00;;;;;;;6.07;2.47;;;23.70;99.90;;;;;;5055582;28;20433;-57
2024/02/14 10:28:26;;;;;;;5.20;2.28;;;23.70;99.90;;;;;;5055495;28;20037;-57
2024/02/14 10:30:54;;;;;;;7.03;2.25;;;23.80;99.90;;;;;;5055538;28;20024;-57
2024/02/14 10:33:20;;;;;;;6.50;2.10;;;23.80;99.90;;;;;;5055570;28;20107;-57
2024/02/14 10:35:49;;;;;;;4.95;2.15;;;23.80;99.90;;;;;;5054259;28;20029;-57
2024/02/14 10:38:18;;;;;;;7.68;2.60;;;23.80;99.90;;;;;;5055529;28;20460;-57
2024/02/14 10:40:47;;;;;;;7.10;2.40;;;23.90;99.90;;;;;;5055356;28;20031;-57
2024/02/14 10:43:13;;;;;;;5.75;1.88;;;23.90;99.90;;;;;;5055345;28;20111;-57
2024/02/14 10:45:39;;;;;;;6.15;1.98;;;23.90;99.90;;;;;;5055114;28;20025;-56
2024/02/14 10:48:06;;;;;;;7.65;2.88;;;24.00;99.90;;;;;;5055286;28;20139;-56
2024/02/14 10:50:38;;;;;;;6.50;1.77;;;24.00;99.90;;;;;;5055275;28;20066;-56
2024/02/14 10:53:06;;;;;;;3.97;2.10;;;24.00;99.90;;;;;;5055165;28;20491;-57
2024/02/14 10:55:34;;;;;;;5.70;2.30;;;24.10;99.90;;;;;;5055016;28;20040;-57
2024/02/14 10:58:01;;;;;;;4.88;2.22;;;24.00;99.90;;;;;;5055239;28;20052;-56
2024/02/14 11:00:29;;;;;;;5.18;2.28;;;24.10;99.90;;;;;;5055085;28;20086;-57
2024/02/14 11:02:56;;;;;;;3.47;2.03;;;24.00;99.90;;;;;;5054784;28;20331;-57
2024/02/14 11:05:25;;;;;;;9.68;2.22;;;24.10;99.90;;;;;;5055175;28;20488;-57
2024/02/14 11:07:54;;;;;;;6.05;2.30;;;24.10;99.90;;;;;;5054687;28;20037;-56
2024/02/14 11:10:22;;;;;;;6.15;2.40;;;24.10;99.90;;;;;;5055109;28;20029;-56
2024/02/14 11:12:50;;;;;;;5.15;2.53;;;24.10;99.90;;;;;;5055026;28;20075;-56
2024/02/14 11:15:21;;;;;;;4.38;2.20;;;24.10;99.90;;;;;;5054561;28;20021;-56
2024/02/14 11:17:57;;;;;;;5.47;1.95;;;24.20;99.90;;;;;;5054679;28;20032;-57
2024/02/14 11:20:33;;;;;;;4.63;2.08;;;24.20;99.90;;;;;;5053726;28;20362;-56
2024/02/14 11:23:06;;;;;;;7.35;2.05;;;24.10;99.90;;;;;;5054476;28;20523;-57
2024/02/14 11:25:34;;;;;;;10.25;2.28;;;24.20;99.90;;;;;;5053362;28;20121;-56
2024/02/14 11:28:02;;;;;;;;;;;24.20;99.90;;;;;;5054812;28;20438;-56
2024/02/14 11:30:33;;;;;;;9.05;1.67;;;24.20;99.90;;;;;;5054434;28;19908;-56
2024/02/14 11:33:37;;;;;;;8.45;2.08;;;24.20;99.90;;;;;;5054336;28;20021;-57
2024/02/14 11:36:10;;;;;;;5.32;2.50;;;24.20;99.90;;;;;;5032198;28;20145;-56
2024/02/14 11:38:36;;;;;;;4.40;1.80;;;24.30;99.90;;;;;;5015786;28;20036;-56
2024/02/14 11:41:03;;;;;;;6.82;2.70;;;24.30;99.90;;;;;;5043468;28;20041;-56
2024/02/14 11:43:29;;;;;;;4.78;2.38;;;24.30;99.90;;;;;;5052926;28;20021;-56
2024/02/14 11:45:55;;;;;;;5.43;2.03;;;24.30;99.90;;;;;;5053998;28;20428;-56
2024/02/14 11:48:23;;;;;;;5.40;2.25;;;24.30;99.90;;;;;;5054257;28;20105;-56
2024/02/14 11:50:49;;;;;;;8.85;2.92;;;24.30;99.90;;;;;;5052749;28;20388;-57
2024/02/14 11:53:21;;;;;;;6.70;2.33;;;24.30;99.90;;;;;;5052720;28;20029;-57
2024/02/14 11:55:47;;;;;;;9.27;2.30;;;24.30;99.90;;;;;;5054072;28;20025;-57
2024/02/14 11:58:15;;;;;;;6.68;2.20;;;24.40;99.90;;;;;;5053986;28;20100;-57
2024/02/14 12:00:43;;;;;;;9.23;2.10;;;24.40;99.90;;;;;;5053777;28;20037;-56
2024/02/14 12:03:26;;;;;;;4.60;2.15;;;24.40;99.90;;;;;;5053832;28;20418;-57
2024/02/14 12:05:53;;;;;;;5.75;2.55;;;24.40;99.90;;;;;;5054083;28;20027;-57
2024/02/14 12:08:19;;;;;;;6.82;2.05;;;24.40;99.90;;;;;;5053789;28;20035;-57
2024/02/14 12:10:52;;;;;;;6.40;2.17;;;24.40;99.90;;;;;;5053741;28;20025;-57
2024/02/14 12:13:21;;;;;;;5.55;2.22;;;24.40;99.90;;;;;;5053603;28;20075;-57
2024/02/14 12:15:48;;;;;;;6.90;2.33;;;24.40;99.90;;;;;;5053581;28;20028;-57
2024/02/14 12:18:15;;;;;;;;;;;24.50;99.90;;;;;;5052716;28;20420;-57
2024/02/14 12:20:45;;;;;;;3.67;2.00;;;24.50;99.90;;;;;;5052559;28;19934;-57
2024/02/14 12:23:19;;;;;;;5.57;2.28;;;24.50;99.90;;;;;;5053302;28;20066;-57
2024/02/14 12:25:47;;;;;;;3.53;1.88;;;24.40;99.90;;;;;;5053444;28;20024;-57
2024/02/14 12:28:17;;;;;;;4.22;2.05;;;24.40;99.90;;;;;;5053470;28;20029;-57
2024/02/14 12:30:55;;;;;;;4.38;2.33;;;24.40;99.90;;;;;;5053321;28;20025;-57
2024/02/14 12:33:22;;;;;;;7.25;2.45;;;24.50;99.90;;;;;;5052037;28;20036;-57
2024/02/14 12:35:48;;;;;;;3.63;2.00;;;24.40;99.90;;;;;;5053313;28;20377;-57
2024/02/14 12:38:16;;;;;;;7.30;2.30;;;24.40;99.90;;;;;;5053386;28;20051;-57
2024/02/14 12:40:43;;;;;;;4.47;2.03;;;24.40;99.90;;;;;;5053068;28;20021;-57
2024/02/14 12:43:10;;;;;;;;;;;24.40;99.90;;;;;;5053497;28;20029;-57
2024/02/14 12:45:37;;;;;;;4.47;2.08;;;24.50;99.90;;;;;;5053122;28;19909;-56
2024/02/14 12:48:03;;;;;;;6.57;2.22;;;24.50;99.90;;;;;;5053002;28;20039;-58